createdAt,value
2023-06-07T00:01:55.689Z,64.29
2023-06-07T00:04:23.041Z,64.26
2023-06-07T00:06:49.925Z,64.21
2023-06-07T00:09:16.738Z,64.21
2023-06-07T00:11:43.884Z,64.20
2023-06-07T00:14:11.055Z,64.18
2023-06-07T00:16:37.887Z,64.20
2023-06-07T00:19:04.983Z,64.18
2023-06-07T00:21:31.922Z,64.11
2023-06-07T00:23:58.772Z,64.10
2023-06-07T00:26:25.964Z,64.09
2023-06-07T00:28:52.916Z,64.06
2023-06-07T00:31:19.792Z,64.07
2023-06-07T00:33:46.731Z,64.04
2023-06-07T00:36:13.535Z,64.06
2023-06-07T00:38:40.416Z,64.07
2023-06-07T00:41:07.246Z,64.03
2023-06-07T00:43:34.045Z,64.01
2023-06-07T00:46:00.947Z,64.01
2023-06-07T00:48:28.694Z,64.02
2023-06-07T00:50:56.982Z,63.96
2023-06-07T00:53:24.295Z,63.95
2023-06-07T00:55:51.172Z,64.02
2023-06-07T00:58:18.763Z,63.99
2023-06-07T01:00:45.632Z,63.92
2023-06-07T01:03:12.816Z,63.92
2023-06-07T01:05:39.765Z,63.93
2023-06-07T01:08:06.737Z,63.92
2023-06-07T01:10:33.716Z,63.90
2023-06-07T01:13:03.643Z,63.90
2023-06-07T01:15:31.911Z,63.89
2023-06-07T01:17:59.503Z,63.92
2023-06-07T01:20:27.588Z,63.91
2023-06-07T01:23:04.666Z,63.96
2023-06-07T01:25:31.455Z,63.96
2023-06-07T01:28:01.451Z,64.00
2023-06-07T01:30:32.925Z,63.97
2023-06-07T01:33:04.072Z,63.99
2023-06-07T01:35:32.977Z,63.99
2023-06-07T01:38:00.064Z,64.00
2023-06-07T01:40:27.861Z,63.98
2023-06-07T01:42:55.849Z,64.05
2023-06-07T01:45:23.077Z,64.11
2023-06-07T01:47:50.184Z,64.12
2023-06-07T01:50:23.800Z,64.16
2023-06-07T01:52:50.692Z,64.19
2023-06-07T01:55:18.458Z,64.18
2023-06-07T01:57:47.575Z,64.18
2023-06-07T02:00:24.812Z,64.19
2023-06-07T02:02:57.843Z,64.25
2023-06-07T02:05:34.995Z,64.26
2023-06-07T02:08:15.293Z,64.30
2023-06-07T02:10:43.480Z,64.35
2023-06-07T02:13:11.224Z,64.33
2023-06-07T02:15:38.028Z,64.27
2023-06-07T02:18:05.795Z,64.26
2023-06-07T02:20:35.876Z,64.25
2023-06-07T02:23:03.423Z,64.24
2023-06-07T02:25:31.944Z,64.25
2023-06-07T02:28:00.169Z,64.26
2023-06-07T02:30:27.126Z,64.26
2023-06-07T02:32:55.583Z,64.25
2023-06-07T02:35:23.518Z,64.21
2023-06-07T02:37:50.839Z,64.21
2023-06-07T02:40:17.789Z,64.19
2023-06-07T02:42:46.240Z,64.14
2023-06-07T02:45:16.320Z,64.14
2023-06-07T02:47:44.341Z,64.16
2023-06-07T02:50:11.597Z,64.12
2023-06-07T02:52:38.576Z,64.12
2023-06-07T02:55:05.811Z,64.17
2023-06-07T02:57:32.712Z,64.14
2023-06-07T02:59:59.524Z,64.11
2023-06-07T03:02:27.299Z,64.10
2023-06-07T03:04:54.727Z,64.12
2023-06-07T03:07:21.738Z,64.12
2023-06-07T03:09:48.919Z,64.12
2023-06-07T03:12:15.811Z,64.16
2023-06-07T03:14:43.749Z,64.16
2023-06-07T03:17:12.917Z,64.18
2023-06-07T03:19:39.884Z,64.20
2023-06-07T03:22:09.882Z,64.14
2023-06-07T03:24:39.990Z,64.14
2023-06-07T03:27:09.510Z,64.20
2023-06-07T03:29:36.370Z,64.19
2023-06-07T03:32:03.571Z,64.19
2023-06-07T03:34:30.935Z,64.17
2023-06-07T03:36:57.755Z,64.13
2023-06-07T03:39:24.571Z,64.20
2023-06-07T03:41:51.468Z,64.21
2023-06-07T03:44:18.250Z,64.13
2023-06-07T03:46:45.032Z,64.20
2023-06-07T03:49:11.946Z,64.23
2023-06-07T03:51:40.081Z,64.19
2023-06-07T03:54:06.926Z,64.16
2023-06-07T03:56:33.710Z,64.15
2023-06-07T03:59:02.978Z,64.10
2023-06-07T04:01:30.255Z,64.15
2023-06-07T04:03:57.408Z,64.16
2023-06-07T04:06:28.935Z,64.19
2023-06-07T04:09:00.601Z,64.20
2023-06-07T04:11:28.291Z,64.24
2023-06-07T04:13:55.737Z,64.23
2023-06-07T04:16:22.743Z,64.20
2023-06-07T04:18:49.574Z,64.19
2023-06-07T04:21:16.453Z,64.16
2023-06-07T04:23:43.354Z,64.13
2023-06-07T04:26:10.237Z,64.18
2023-06-07T04:28:37.242Z,64.17
2023-06-07T04:31:04.090Z,64.16
2023-06-07T04:33:30.842Z,64.17
2023-06-07T04:35:59.099Z,64.20
2023-06-07T04:38:27.193Z,64.22
2023-06-07T04:40:54.607Z,64.21
2023-06-07T04:43:21.616Z,64.19
2023-06-07T04:45:55.383Z,64.20
2023-06-07T04:48:27.424Z,64.24
2023-06-07T04:50:55.810Z,64.26
2023-06-07T04:53:22.592Z,64.28
2023-06-07T04:55:50.480Z,64.27
2023-06-07T04:58:17.864Z,64.25
2023-06-07T05:00:45.013Z,64.32
2023-06-07T05:03:14.582Z,64.35
2023-06-07T05:05:41.503Z,64.36
2023-06-07T05:08:08.409Z,64.37
2023-06-07T05:10:35.236Z,64.39
2023-06-07T05:13:02.323Z,64.36
2023-06-07T05:15:29.768Z,64.36
2023-06-07T05:17:56.624Z,64.28
2023-06-07T05:20:26.082Z,64.25
2023-06-07T05:22:53.720Z,64.23
2023-06-07T05:25:20.896Z,64.22
2023-06-07T05:28:03.638Z,64.17
2023-06-07T05:30:37.550Z,64.16
2023-06-07T05:33:05.549Z,64.17
2023-06-07T05:35:32.622Z,64.21
2023-06-07T05:37:59.777Z,64.20
2023-06-07T05:40:26.559Z,64.16
2023-06-07T05:42:53.317Z,64.14
2023-06-07T05:45:21.897Z,64.10
2023-06-07T05:47:49.446Z,64.05
2023-06-07T05:50:16.883Z,64.02
2023-06-07T05:52:43.707Z,64.00
2023-06-07T05:55:10.518Z,63.97
2023-06-07T05:57:38.495Z,63.98
2023-06-07T06:00:12.666Z,63.92
2023-06-07T06:02:40.748Z,63.91
2023-06-07T06:05:08.222Z,63.83
2023-06-07T06:07:35.059Z,63.76
2023-06-07T06:10:02.058Z,63.71
2023-06-07T06:12:28.931Z,63.66
2023-06-07T06:14:56.140Z,63.60
2023-06-07T06:17:23.748Z,63.59
2023-06-07T06:19:50.556Z,63.55
2023-06-07T06:22:17.932Z,63.54
2023-06-07T06:24:44.930Z,63.54
2023-06-07T06:27:12.988Z,63.62
2023-06-07T06:29:39.848Z,63.59
2023-06-07T06:32:07.426Z,63.56
2023-06-07T06:34:34.279Z,63.62
2023-06-07T06:37:01.981Z,63.62
2023-06-07T06:39:28.823Z,63.59
2023-06-07T06:41:55.914Z,63.55
2023-06-07T06:44:22.688Z,63.46
2023-06-07T06:46:52.544Z,63.38
2023-06-07T06:49:19.363Z,63.31
2023-06-07T06:51:47.106Z,63.24
2023-06-07T06:54:14.214Z,63.15
2023-06-07T06:56:41.151Z,63.15
2023-06-07T06:59:07.961Z,63.11
2023-06-07T07:01:47.214Z,63.06
2023-06-07T07:04:15.676Z,63.03
2023-06-07T07:06:43.546Z,63.04
2023-06-07T07:09:10.938Z,63.03
2023-06-07T07:11:38.290Z,63.01
2023-06-07T07:14:05.386Z,63.01
2023-06-07T07:16:32.613Z,63.01
2023-06-07T07:18:59.809Z,63.00
2023-06-07T07:21:28.123Z,63.00
2023-06-07T07:23:56.629Z,63.15
2023-06-07T07:26:23.796Z,63.16
2023-06-07T07:28:50.978Z,63.18
2023-06-07T07:31:17.800Z,63.26
2023-06-07T07:33:44.557Z,63.28
2023-06-07T07:36:11.394Z,63.27
2023-06-07T07:38:39.156Z,63.35
2023-06-07T07:41:06.687Z,63.42
2023-06-07T07:43:37.713Z,63.46
2023-06-07T07:46:05.201Z,63.51
2023-06-07T07:48:32.204Z,63.52
2023-06-07T07:50:59.269Z,63.59
2023-06-07T07:53:26.116Z,63.64
2023-06-07T07:55:52.904Z,63.67
2023-06-07T07:58:19.790Z,63.64
2023-06-07T08:00:46.649Z,63.62
2023-06-07T08:03:14.298Z,63.62
2023-06-07T08:05:41.230Z,63.63
2023-06-07T08:08:08.334Z,63.63
2023-06-07T08:10:35.192Z,63.69
2023-06-07T08:13:01.992Z,63.72
2023-06-07T08:15:28.802Z,63.75
2023-06-07T08:17:55.893Z,63.73
2023-06-07T08:20:22.791Z,63.74
2023-06-07T08:22:54.524Z,63.75
2023-06-07T08:25:21.672Z,63.79
2023-06-07T08:27:48.469Z,63.74
2023-06-07T08:30:15.950Z,63.63
2023-06-07T08:32:44.868Z,63.62
2023-06-07T08:35:12.274Z,63.57
2023-06-07T08:37:39.319Z,63.53
2023-06-07T08:40:07.534Z,63.53
2023-06-07T08:42:34.882Z,63.53
2023-06-07T08:45:02.265Z,63.57
2023-06-07T08:47:29.792Z,63.47
2023-06-07T08:49:57.901Z,63.50
2023-06-07T08:52:25.685Z,63.33
2023-06-07T08:54:56.107Z,63.28
2023-06-07T08:57:23.440Z,63.17
2023-06-07T08:59:50.645Z,63.24
2023-06-07T09:02:18.199Z,63.28
2023-06-07T09:04:46.275Z,63.29
2023-06-07T09:07:13.608Z,63.21
2023-06-07T09:09:41.873Z,63.02
2023-06-07T09:12:09.101Z,62.74
2023-06-07T09:14:37.201Z,62.33
2023-06-07T09:17:04.336Z,62.12
2023-06-07T09:19:31.911Z,61.90
2023-06-07T09:21:58.776Z,61.86
2023-06-07T09:24:29.760Z,61.69
2023-06-07T09:26:59.447Z,61.63
2023-06-07T09:29:30.454Z,61.65
2023-06-07T09:31:57.982Z,61.49
2023-06-07T09:34:27.442Z,61.46
2023-06-07T09:36:55.481Z,61.39
2023-06-07T09:39:24.600Z,61.44
2023-06-07T09:41:53.308Z,61.51
2023-06-07T09:44:27.450Z,61.40
2023-06-07T09:46:55.165Z,61.25
2023-06-07T09:49:35.478Z,60.97
2023-06-07T09:52:03.534Z,60.80
2023-06-07T09:54:47.199Z,60.81
2023-06-07T09:57:34.889Z,60.59
2023-06-07T10:00:11.978Z,60.54
2023-06-07T10:02:38.998Z,60.50
2023-06-07T10:05:05.903Z,60.39
2023-06-07T10:07:37.916Z,60.32
2023-06-07T10:10:09.710Z,60.31
2023-06-07T10:12:41.516Z,60.39
2023-06-07T10:15:11.111Z,60.23
2023-06-07T10:17:53.660Z,60.23
2023-06-07T10:20:35.015Z,60.12
2023-06-07T10:23:05.359Z,60.13
2023-06-07T10:25:40.641Z,60.12
2023-06-07T10:28:26.261Z,60.06
2023-06-07T10:30:56.737Z,60.11
2023-06-07T10:33:27.460Z,60.06
2023-06-07T10:35:56.722Z,60.08
2023-06-07T10:38:23.653Z,59.97
2023-06-07T10:40:50.530Z,59.81
2023-06-07T10:43:17.560Z,59.77
2023-06-07T10:45:44.512Z,59.75
2023-06-07T10:48:37.071Z,59.59
2023-06-07T10:51:04.162Z,59.65
2023-06-07T10:53:50.418Z,59.66
2023-06-07T10:56:29.181Z,59.50
2023-06-07T10:58:58.053Z,59.40
2023-06-07T11:01:26.796Z,59.43
2023-06-07T11:03:54.978Z,59.36
2023-06-07T11:06:22.142Z,59.15
2023-06-07T11:08:49.773Z,59.00
2023-06-07T11:11:39.771Z,59.12
2023-06-07T11:14:06.809Z,59.14
2023-06-07T11:16:33.664Z,58.97
2023-06-07T11:19:10.418Z,58.79
2023-06-07T11:21:55.270Z,58.56
2023-06-07T11:24:22.891Z,58.49
2023-06-07T11:26:51.700Z,58.33
2023-06-07T11:29:19.446Z,58.25
2023-06-07T11:32:00.974Z,58.02
2023-06-07T11:34:32.332Z,57.90
2023-06-07T11:37:14.820Z,57.84
2023-06-07T11:39:41.905Z,57.68
2023-06-07T11:42:08.981Z,57.46
2023-06-07T11:44:36.161Z,57.25
2023-06-07T11:47:07.072Z,57.29
2023-06-07T11:49:36.345Z,57.11
2023-06-07T11:52:03.390Z,56.93
2023-06-07T11:54:30.367Z,56.78
2023-06-07T11:56:57.503Z,56.64
2023-06-07T11:59:24.831Z,56.70
2023-06-07T12:01:53.706Z,56.47
2023-06-07T12:04:22.449Z,56.50
2023-06-07T12:06:50.527Z,56.40
2023-06-07T12:09:20.973Z,56.34
2023-06-07T12:11:48.496Z,56.36
2023-06-07T12:14:31.974Z,56.11
2023-06-07T12:17:00.417Z,56.00
2023-06-07T12:19:27.280Z,55.85
2023-06-07T12:21:57.643Z,55.75
2023-06-07T12:24:24.516Z,55.68
2023-06-07T12:26:57.717Z,55.56
2023-06-07T12:29:30.859Z,55.41
2023-06-07T12:31:58.473Z,55.26
2023-06-07T12:34:30.307Z,55.18
2023-06-07T12:36:57.703Z,55.23
2023-06-07T12:39:29.277Z,55.27
2023-06-07T12:41:56.828Z,55.18
2023-06-07T12:44:24.859Z,55.26
2023-06-07T12:46:51.885Z,55.31
2023-06-07T12:49:18.879Z,55.33
2023-06-07T12:51:45.904Z,55.41
2023-06-07T12:54:12.749Z,55.46
2023-06-07T12:56:39.541Z,55.48
2023-06-07T12:59:06.326Z,55.43
2023-06-07T13:01:33.409Z,55.44
2023-06-07T13:04:01.092Z,55.73
2023-06-07T13:06:29.558Z,56.33
2023-06-07T13:09:05.428Z,56.91
2023-06-07T13:11:32.368Z,57.46
2023-06-07T13:13:59.416Z,57.88
2023-06-07T13:16:27.487Z,58.32
2023-06-07T13:18:54.421Z,58.86
2023-06-07T13:21:21.429Z,59.03
2023-06-07T13:23:48.254Z,59.41
2023-06-07T13:26:16.273Z,59.67
2023-06-07T13:28:45.345Z,59.86
2023-06-07T13:31:12.823Z,60.04
2023-06-07T13:33:39.650Z,60.17
2023-06-07T13:36:06.633Z,60.24
2023-06-07T13:38:34.135Z,60.34
2023-06-07T13:41:01.725Z,60.46
2023-06-07T13:43:44.369Z,60.54
2023-06-07T13:46:16.206Z,60.65
2023-06-07T13:48:43.082Z,60.72
2023-06-07T13:51:12.101Z,60.72
2023-06-07T13:53:44.521Z,61.00
2023-06-07T13:56:11.640Z,61.29
2023-06-07T13:58:38.718Z,61.52
2023-06-07T14:01:06.849Z,61.73
2023-06-07T14:03:35.554Z,61.89
2023-06-07T14:06:03.568Z,62.07
2023-06-07T14:08:30.553Z,62.17
2023-06-07T14:11:00.546Z,62.32
2023-06-07T14:13:28.230Z,62.46
2023-06-07T14:15:55.085Z,62.67
2023-06-07T14:18:21.910Z,62.71
2023-06-07T14:20:48.769Z,62.86
2023-06-07T14:23:34.174Z,62.72
2023-06-07T14:26:01.098Z,62.73
2023-06-07T14:28:27.979Z,62.63
2023-06-07T14:30:54.682Z,62.64
2023-06-07T14:33:21.331Z,62.60
2023-06-07T14:35:48.033Z,62.56
2023-06-07T14:38:14.703Z,62.54
2023-06-07T14:40:41.365Z,62.51
2023-06-07T14:43:08.098Z,62.39
2023-06-07T14:48:18.864Z,62.19
2023-06-07T14:50:45.614Z,62.02
2023-06-07T14:53:12.300Z,61.90
2023-06-07T14:55:38.991Z,61.82
2023-06-07T14:58:06.972Z,61.75
2023-06-07T15:00:34.824Z,61.60
2023-06-07T15:03:01.743Z,61.49
2023-06-07T15:05:29.385Z,61.41
2023-06-07T15:07:56.826Z,61.30
2023-06-07T15:10:23.580Z,61.21
2023-06-07T15:12:50.380Z,61.07
2023-06-07T15:15:17.466Z,61.08
2023-06-07T15:17:46.513Z,60.94
2023-06-07T15:20:16.188Z,60.86
2023-06-07T15:22:43.125Z,60.75
2023-06-07T15:25:10.047Z,60.68
2023-06-07T15:27:37.449Z,60.62
2023-06-07T15:30:05.212Z,60.42
2023-06-07T15:32:32.816Z,60.24
2023-06-07T15:35:00.036Z,60.15
2023-06-07T15:37:26.935Z,60.06
2023-06-07T15:39:53.671Z,60.03
2023-06-07T15:42:20.327Z,60.04
2023-06-07T15:44:47.205Z,60.09
2023-06-07T15:47:15.361Z,59.96
2023-06-07T15:49:42.189Z,59.84
2023-06-07T15:52:08.933Z,59.69
2023-06-07T15:54:35.710Z,59.70
2023-06-07T15:57:02.530Z,59.69
2023-06-07T15:59:29.297Z,59.68
2023-06-07T16:01:58.631Z,59.65
2023-06-07T16:04:25.977Z,59.56
2023-06-07T16:06:52.712Z,59.30
2023-06-07T16:09:19.622Z,59.13
2023-06-07T16:11:46.346Z,58.98
2023-06-07T16:14:13.671Z,58.89
2023-06-07T16:16:40.876Z,58.83
2023-06-07T16:19:10.312Z,58.82
2023-06-07T16:21:39.066Z,58.86
2023-06-07T16:24:06.539Z,58.88
2023-06-07T16:26:33.232Z,58.87
2023-06-07T16:29:00.008Z,58.98
2023-06-07T16:31:28.726Z,59.02
2023-06-07T16:33:55.811Z,59.04
2023-06-07T16:36:22.878Z,59.07
2023-06-07T16:38:50.539Z,59.06
2023-06-07T16:41:22.900Z,59.07
2023-06-07T16:43:50.610Z,59.09
2023-06-07T16:46:17.359Z,59.09
2023-06-07T16:48:44.253Z,59.10
2023-06-07T16:51:11.217Z,59.13
2023-06-07T16:53:38.737Z,59.12
2023-06-07T16:56:05.921Z,59.13
2023-06-07T16:58:32.876Z,59.13
2023-06-07T17:00:59.631Z,59.13
2023-06-07T17:03:26.414Z,59.08
2023-06-07T17:05:54.060Z,59.08
2023-06-07T17:08:20.896Z,59.13
2023-06-07T17:10:49.098Z,59.17
2023-06-07T17:13:16.663Z,59.21
2023-06-07T17:15:43.436Z,59.14
2023-06-07T17:18:13.504Z,59.09
2023-06-07T17:20:42.044Z,59.12
2023-06-07T17:23:08.953Z,59.20
2023-06-07T17:25:36.344Z,59.26
2023-06-07T17:28:03.207Z,59.32
2023-06-07T17:30:31.172Z,59.36
2023-06-07T17:32:58.180Z,59.36
2023-06-07T17:35:25.058Z,59.38
2023-06-07T17:37:52.088Z,59.46
2023-06-07T17:40:18.816Z,59.52
2023-06-07T17:42:45.550Z,59.57
2023-06-07T17:45:12.352Z,59.63
2023-06-07T17:47:53.208Z,59.74
2023-06-07T17:50:37.220Z,59.83
2023-06-07T17:53:13.295Z,59.96
2023-06-07T17:55:41.007Z,60.05
2023-06-07T17:58:07.707Z,60.14
2023-06-07T18:00:34.563Z,60.22
2023-06-07T18:03:02.536Z,60.32
2023-06-07T18:05:29.423Z,60.37
2023-06-07T18:07:56.136Z,60.49
2023-06-07T18:10:22.841Z,60.58
2023-06-07T18:12:49.683Z,60.62
2023-06-07T18:15:16.583Z,60.76
2023-06-07T18:17:43.819Z,60.79
2023-06-07T18:20:11.004Z,60.86
2023-06-07T18:22:37.739Z,60.87
2023-06-07T18:25:04.941Z,60.88
2023-06-07T18:27:31.667Z,60.91
2023-06-07T18:29:58.358Z,61.02
2023-06-07T18:32:25.061Z,61.19
2023-06-07T18:34:51.978Z,61.28
2023-06-07T18:37:18.828Z,61.34
2023-06-07T18:39:45.593Z,61.52
2023-06-07T18:42:14.326Z,61.62
2023-06-07T18:44:43.202Z,61.78
2023-06-07T18:47:09.922Z,61.80
2023-06-07T18:49:36.757Z,61.89
2023-06-07T18:52:08.080Z,62.00
2023-06-07T18:54:34.839Z,62.18
2023-06-07T18:57:03.412Z,62.24
2023-06-07T18:59:30.241Z,62.25
2023-06-07T19:01:58.533Z,62.40
2023-06-07T19:04:26.994Z,62.40
2023-06-07T19:06:55.452Z,62.60
2023-06-07T19:09:22.285Z,62.61
2023-06-07T19:11:49.019Z,62.65
2023-06-07T19:14:17.266Z,62.61
2023-06-07T19:16:44.389Z,62.65
2023-06-07T19:19:11.248Z,62.71
2023-06-07T19:21:37.992Z,62.79
2023-06-07T19:24:05.011Z,62.81
2023-06-07T19:26:32.009Z,62.76
2023-06-07T19:28:59.376Z,62.80
2023-06-07T19:31:26.941Z,62.75
2023-06-07T19:33:54.683Z,62.77
2023-06-07T19:36:21.521Z,62.83
2023-06-07T19:38:48.254Z,62.90
2023-06-07T19:41:14.973Z,62.99
2023-06-07T19:43:41.833Z,62.95
2023-06-07T19:46:08.703Z,62.99
2023-06-07T19:48:35.472Z,62.97
2023-06-07T19:51:02.193Z,63.00
2023-06-07T19:53:28.889Z,62.91
2023-06-07T19:55:56.307Z,63.05
2023-06-07T19:58:23.234Z,63.03
2023-06-07T20:00:49.983Z,63.05
2023-06-07T20:03:16.774Z,63.04
2023-06-07T20:05:43.469Z,63.12
2023-06-07T20:08:11.654Z,63.15
2023-06-07T20:10:38.384Z,63.17
2023-06-07T20:13:05.076Z,63.12
2023-06-07T20:15:31.893Z,63.12
2023-06-07T20:17:58.616Z,63.15
2023-06-07T20:20:25.997Z,63.20
2023-06-07T20:22:52.756Z,63.13
2023-06-07T20:25:19.572Z,63.17
2023-06-07T20:27:46.284Z,63.18
2023-06-07T20:30:13.595Z,63.18
2023-06-07T20:32:40.416Z,63.16
2023-06-07T20:35:07.732Z,63.20
2023-06-07T20:37:35.218Z,63.18
2023-06-07T20:40:02.161Z,63.23
2023-06-07T20:42:29.017Z,63.28
2023-06-07T20:44:56.051Z,63.34
2023-06-07T20:47:23.130Z,63.26
2023-06-07T20:49:50.146Z,63.35
2023-06-07T20:52:16.950Z,63.36
2023-06-07T20:54:43.857Z,63.40
2023-06-07T20:57:10.709Z,63.46
2023-06-07T20:59:44.918Z,63.39
2023-06-07T21:02:11.763Z,63.36
2023-06-07T21:04:38.578Z,63.41
2023-06-07T21:07:05.713Z,63.30
2023-06-07T21:09:32.502Z,63.39
2023-06-07T21:11:59.332Z,63.40
2023-06-07T21:14:26.155Z,63.44
2023-06-07T21:16:52.940Z,63.47
2023-06-07T21:19:19.771Z,63.53
2023-06-07T21:21:46.533Z,63.48
2023-06-07T21:24:13.483Z,63.44
2023-06-07T21:26:40.664Z,63.58
2023-06-07T21:29:09.528Z,63.56
2023-06-07T21:31:38.334Z,63.60
2023-06-07T21:34:05.299Z,63.52
2023-06-07T21:36:32.111Z,63.61
2023-06-07T21:38:59.134Z,63.64
2023-06-07T21:41:28.959Z,63.57
2023-06-07T21:43:55.942Z,63.56
2023-06-07T21:46:23.050Z,63.66
2023-06-07T21:48:49.936Z,63.67
2023-06-07T21:51:16.799Z,63.65
2023-06-07T21:53:43.674Z,63.74
2023-06-07T21:56:10.445Z,63.68
2023-06-07T21:58:37.313Z,63.67
2023-06-07T22:01:04.357Z,63.59
2023-06-07T22:03:33.344Z,63.66
2023-06-07T22:06:01.894Z,63.63
2023-06-07T22:08:29.304Z,63.72
2023-06-07T22:10:56.288Z,63.71
2023-06-07T22:13:23.391Z,63.65
2023-06-07T22:15:53.532Z,63.65
2023-06-07T22:18:21.246Z,63.76
2023-06-07T22:20:48.596Z,63.76
2023-06-07T22:23:15.989Z,63.79
2023-06-07T22:25:44.796Z,63.78
2023-06-07T22:28:14.163Z,63.81
2023-06-07T22:30:42.275Z,63.87
2023-06-07T22:33:10.156Z,63.89
2023-06-07T22:35:38.571Z,63.88
2023-06-07T22:38:07.264Z,63.92
2023-06-07T22:40:36.727Z,63.99
2023-06-07T22:43:03.518Z,64.03
2023-06-07T22:45:31.537Z,64.05
2023-06-07T22:48:03.774Z,64.11
2023-06-07T22:50:35.292Z,64.18
2023-06-07T22:53:03.691Z,64.14
2023-06-07T22:55:32.290Z,64.37
2023-06-07T22:58:01.352Z,64.43
2023-06-07T23:00:29.174Z,64.41
2023-06-07T23:02:58.509Z,64.42
2023-06-07T23:05:28.312Z,64.54
2023-06-07T23:07:56.597Z,64.50
2023-06-07T23:10:35.549Z,64.61
2023-06-07T23:13:08.394Z,64.50
2023-06-07T23:15:36.641Z,64.54
2023-06-07T23:18:03.961Z,64.59
2023-06-07T23:20:34.308Z,64.68
2023-06-07T23:23:04.812Z,64.76
2023-06-07T23:25:32.436Z,64.75
2023-06-07T23:28:18.087Z,64.75
2023-06-07T23:30:44.913Z,64.76
2023-06-07T23:33:13.039Z,64.81
2023-06-07T23:35:42.273Z,64.85
2023-06-07T23:38:09.267Z,64.85
2023-06-07T23:40:36.094Z,64.90
2023-06-07T23:43:05.302Z,64.87
2023-06-07T23:45:32.432Z,64.95
2023-06-07T23:48:00.616Z,64.94
2023-06-07T23:50:28.102Z,65.07
2023-06-07T23:52:54.951Z,65.05
2023-06-07T23:55:21.912Z,65.16
2023-06-07T23:57:48.746Z,65.21
